createdAt,value
2023-04-05T00:01:12.577Z,5.27
2023-04-05T00:03:40.096Z,4.90
2023-04-05T00:06:07.828Z,4.50
2023-04-05T00:08:34.075Z,6.03
2023-04-05T00:11:00.826Z,5.83
2023-04-05T00:13:27.144Z,5.60
2023-04-05T00:15:53.420Z,5.80
2023-04-05T00:18:22.165Z,6.57
2023-04-05T00:20:49.242Z,7.33
2023-04-05T00:23:17.452Z,6.20
2023-04-05T00:25:43.998Z,6.47
2023-04-05T00:28:10.565Z,6.00
2023-04-05T00:30:36.903Z,5.87
2023-04-05T00:33:03.258Z,5.47
2023-04-05T00:35:30.053Z,4.87
2023-04-05T00:37:57.011Z,5.17
2023-04-05T00:40:23.618Z,5.00
2023-04-05T00:42:49.942Z,4.50
2023-04-05T00:45:16.453Z,4.70
2023-04-05T00:47:43.060Z,4.37
2023-04-05T00:50:11.250Z,4.50
2023-04-05T00:52:43.517Z,4.70
2023-04-05T00:55:10.186Z,5.37
2023-04-05T00:57:39.113Z,6.50
2023-04-05T01:00:09.360Z,6.80
2023-04-05T01:02:39.454Z,7.10
2023-04-05T01:05:20.640Z,7.27
2023-04-05T01:07:51.085Z,6.17
2023-04-05T01:10:17.575Z,6.43
2023-04-05T01:12:45.149Z,6.30
2023-04-05T01:15:11.422Z,6.03
2023-04-05T01:17:39.193Z,5.73
2023-04-05T01:20:10.555Z,5.63
2023-04-05T01:22:40.406Z,5.33
2023-04-05T01:25:19.696Z,4.93
2023-04-05T01:27:48.960Z,4.70
2023-04-05T01:30:20.804Z,5.20
2023-04-05T01:33:05.733Z,5.20
2023-04-05T01:35:39.390Z,5.70
2023-04-05T01:38:06.783Z,5.83
2023-04-05T01:40:33.732Z,5.13
2023-04-05T01:43:04.131Z,5.17
2023-04-05T01:45:31.356Z,5.13
2023-04-05T01:47:57.667Z,4.87
2023-04-05T01:50:23.951Z,5.00
2023-04-05T01:52:50.254Z,4.87
2023-04-05T01:55:16.493Z,5.03
2023-04-05T01:57:42.748Z,5.20
2023-04-05T02:00:09.458Z,4.83
2023-04-05T02:02:35.844Z,4.83
2023-04-05T02:05:02.131Z,4.83
2023-04-05T02:07:28.425Z,5.00
2023-04-05T02:09:54.698Z,5.30
2023-04-05T02:12:20.973Z,7.20
2023-04-05T02:14:47.196Z,8.37
2023-04-05T02:17:13.499Z,7.80
2023-04-05T02:19:46.142Z,7.37
2023-04-05T02:22:12.590Z,6.43
2023-04-05T02:24:38.836Z,6.30
2023-04-05T02:27:05.196Z,5.40
2023-04-05T02:29:31.795Z,5.73
2023-04-05T02:31:58.105Z,5.50
2023-04-05T02:34:24.386Z,5.50
2023-04-05T02:36:51.332Z,5.20
2023-04-05T02:39:18.334Z,5.20
2023-04-05T02:41:44.625Z,5.67
2023-04-05T02:44:10.958Z,4.93
2023-04-05T02:46:37.280Z,4.77
2023-04-05T02:49:03.543Z,4.50
2023-04-05T02:51:29.837Z,4.80
2023-04-05T02:53:56.231Z,5.57
2023-04-05T02:56:22.459Z,4.93
2023-04-05T02:58:49.357Z,5.33
2023-04-05T03:01:17.754Z,4.93
2023-04-05T03:03:44.085Z,4.53
2023-04-05T03:06:10.641Z,4.77
2023-04-05T03:08:44.097Z,5.03
2023-04-05T03:11:10.955Z,5.07
2023-04-05T03:13:37.267Z,4.13
2023-04-05T03:16:04.266Z,4.60
2023-04-05T03:18:30.629Z,4.63
2023-04-05T03:20:57.241Z,4.50
2023-04-05T03:23:27.149Z,4.27
2023-04-05T03:25:54.073Z,4.10
2023-04-05T03:28:20.359Z,4.17
2023-04-05T03:30:46.717Z,4.23
2023-04-05T03:33:12.992Z,3.53
2023-04-05T03:35:39.372Z,3.73
2023-04-05T03:38:05.914Z,3.97
2023-04-05T03:40:32.458Z,3.97
2023-04-05T03:42:58.789Z,3.60
2023-04-05T03:45:25.206Z,3.63
2023-04-05T03:47:51.636Z,3.93
2023-04-05T03:50:18.016Z,3.10
2023-04-05T03:52:44.822Z,4.07
2023-04-05T03:55:11.120Z,3.50
2023-04-05T03:57:38.789Z,3.90
2023-04-05T04:00:14.806Z,3.37
2023-04-05T04:02:44.738Z,3.47
2023-04-05T04:05:11.815Z,4.00
2023-04-05T04:07:38.148Z,3.77
2023-04-05T04:10:05.386Z,4.27
2023-04-05T04:12:31.663Z,4.87
2023-04-05T04:14:57.962Z,4.47
2023-04-05T04:17:31.902Z,3.87
2023-04-05T04:19:58.421Z,4.60
2023-04-05T04:22:26.736Z,3.90
2023-04-05T04:24:53.624Z,3.60
2023-04-05T04:27:22.942Z,3.43
2023-04-05T04:29:49.298Z,3.97
2023-04-05T04:32:16.344Z,3.50
2023-04-05T04:34:44.738Z,3.40
2023-04-05T04:37:18.322Z,3.70
2023-04-05T04:39:46.314Z,3.83
2023-04-05T04:42:12.983Z,3.60
2023-04-05T04:44:42.547Z,4.07
2023-04-05T04:47:14.871Z,3.97
2023-04-05T04:49:41.669Z,3.60
2023-04-05T04:52:07.947Z,3.87
2023-04-05T04:54:35.192Z,4.23
2023-04-05T04:57:02.412Z,3.93
2023-04-05T04:59:29.237Z,3.97
2023-04-05T05:01:55.613Z,3.70
2023-04-05T05:04:22.825Z,4.40
2023-04-05T05:06:54.146Z,4.13
2023-04-05T05:09:20.739Z,4.17
2023-04-05T05:11:47.228Z,3.80
2023-04-05T05:14:13.515Z,3.90
2023-04-05T05:16:39.794Z,3.90
2023-04-05T05:19:06.315Z,3.90
2023-04-05T05:21:32.584Z,3.70
2023-04-05T05:23:58.827Z,3.73
2023-04-05T05:26:25.124Z,4.00
2023-04-05T05:28:51.600Z,3.60
2023-04-05T05:31:18.375Z,3.53
2023-04-05T05:33:49.449Z,4.00
2023-04-05T05:36:15.950Z,3.10
2023-04-05T05:38:43.564Z,3.63
2023-04-05T05:41:10.285Z,3.43
2023-04-05T05:43:36.563Z,3.60
2023-04-05T05:46:02.952Z,3.83
2023-04-05T05:48:29.222Z,3.60
2023-04-05T05:50:56.319Z,3.27
2023-04-05T05:53:22.828Z,3.60
2023-04-05T05:55:49.607Z,3.63
2023-04-05T05:58:15.937Z,4.10
2023-04-05T06:00:42.856Z,3.53
2023-04-05T06:03:09.974Z,3.80
2023-04-05T06:05:36.543Z,4.53
2023-04-05T06:08:03.915Z,5.00
2023-04-05T06:10:31.009Z,4.77
2023-04-05T06:12:57.400Z,4.27
2023-04-05T06:15:23.685Z,4.17
2023-04-05T06:17:49.997Z,4.40
2023-04-05T06:20:16.539Z,4.40
2023-04-05T06:22:44.377Z,3.93
2023-04-05T06:25:12.279Z,4.27
2023-04-05T06:27:38.574Z,4.07
2023-04-05T06:30:05.356Z,3.80
2023-04-05T06:32:31.716Z,3.80
2023-04-05T06:34:58.012Z,3.57
2023-04-05T06:37:24.275Z,3.63
2023-04-05T06:39:50.656Z,3.60
2023-04-05T06:42:16.912Z,3.60
2023-04-05T06:44:43.144Z,3.70
2023-04-05T06:47:10.013Z,3.80
2023-04-05T06:49:36.273Z,3.77
2023-04-05T06:52:05.795Z,3.10
2023-04-05T06:54:33.190Z,3.60
2023-04-05T06:57:01.599Z,3.43
2023-04-05T06:59:29.759Z,3.00
2023-04-05T07:01:56.509Z,3.17
2023-04-05T07:04:22.813Z,3.00
2023-04-05T07:06:49.086Z,3.63
2023-04-05T07:09:15.335Z,3.37
2023-04-05T07:11:41.747Z,3.20
2023-04-05T07:14:07.986Z,3.10
2023-04-05T07:16:34.388Z,3.47
2023-04-05T07:19:00.661Z,4.00
2023-04-05T07:21:27.142Z,4.67
2023-04-05T07:23:55.926Z,4.23
2023-04-05T07:26:22.536Z,4.40
2023-04-05T07:28:48.922Z,4.20
2023-04-05T07:31:15.885Z,4.83
2023-04-05T07:33:42.128Z,4.80
2023-04-05T07:36:08.729Z,4.60
2023-04-05T07:38:35.229Z,4.20
2023-04-05T07:41:01.715Z,4.27
2023-04-05T07:43:27.970Z,4.47
2023-04-05T07:46:01.099Z,5.13
2023-04-05T07:48:27.397Z,4.57
2023-04-05T07:50:55.039Z,4.63
2023-04-05T07:53:21.309Z,4.60
2023-04-05T07:55:48.034Z,5.00
2023-04-05T07:58:14.351Z,4.50
2023-04-05T08:00:41.278Z,5.20
2023-04-05T08:03:07.775Z,5.60
2023-04-05T08:05:34.186Z,5.03
2023-04-05T08:08:00.466Z,5.17
2023-04-05T08:10:27.124Z,5.17
2023-04-05T08:12:53.511Z,4.90
2023-04-05T08:15:19.755Z,5.07
2023-04-05T08:17:46.073Z,4.90
2023-04-05T08:20:12.568Z,5.37
2023-04-05T08:22:38.823Z,4.70
2023-04-05T08:25:05.469Z,5.43
2023-04-05T08:27:32.069Z,5.33
2023-04-05T08:29:58.439Z,5.17
2023-04-05T08:32:24.755Z,5.63
2023-04-05T08:34:50.987Z,5.67
2023-04-05T08:37:17.244Z,5.00
2023-04-05T08:39:43.490Z,5.20
2023-04-05T08:42:16.961Z,4.63
2023-04-05T08:44:44.258Z,5.33
2023-04-05T08:47:15.112Z,5.00
2023-04-05T08:49:44.788Z,4.93
2023-04-05T08:52:11.555Z,5.00
2023-04-05T08:54:37.821Z,5.03
2023-04-05T08:57:08.310Z,5.03
2023-04-05T08:59:37.655Z,4.70
2023-04-05T09:02:04.359Z,5.10
2023-04-05T09:04:32.010Z,4.40
2023-04-05T09:06:59.353Z,5.40
2023-04-05T09:09:25.792Z,4.60
2023-04-05T09:11:54.856Z,5.37
2023-04-05T09:14:21.739Z,4.73
2023-04-05T09:16:48.176Z,4.80
2023-04-05T09:19:14.753Z,4.80
2023-04-05T09:22:02.705Z,4.60
2023-04-05T09:24:33.348Z,4.60
2023-04-05T09:27:06.551Z,4.37
2023-04-05T09:29:32.839Z,4.30
2023-04-05T09:32:00.415Z,4.43
2023-04-05T09:34:26.724Z,4.37
2023-04-05T09:36:53.030Z,4.83
2023-04-05T09:39:27.590Z,4.80
2023-04-05T09:42:13.183Z,4.90
2023-04-05T09:45:02.517Z,4.23
2023-04-05T09:47:34.662Z,4.33
2023-04-05T09:50:17.128Z,4.80
2023-04-05T09:52:44.099Z,4.27
2023-04-05T09:55:11.184Z,4.80
2023-04-05T09:57:39.036Z,4.53
2023-04-05T10:00:06.062Z,4.20
2023-04-05T10:02:37.408Z,4.30
2023-04-05T10:05:06.402Z,3.93
2023-04-05T10:07:32.804Z,4.47
2023-04-05T10:09:59.169Z,4.47
2023-04-05T10:12:29.460Z,4.17
2023-04-05T10:14:57.048Z,4.40
2023-04-05T10:17:49.059Z,4.43
2023-04-05T10:20:17.180Z,4.17
2023-04-05T10:22:55.971Z,3.37
2023-04-05T10:25:41.361Z,3.87
2023-04-05T10:28:11.125Z,4.37
2023-04-05T10:30:41.558Z,4.37
2023-04-05T10:33:16.459Z,4.20
2023-04-05T10:35:49.749Z,3.70
2023-04-05T10:38:19.950Z,3.40
2023-04-05T10:40:47.321Z,4.03
2023-04-05T10:43:20.508Z,3.97
2023-04-05T10:45:48.577Z,4.20
2023-04-05T10:48:33.779Z,3.77
2023-04-05T10:51:00.170Z,4.40
2023-04-05T10:53:27.208Z,4.63
2023-04-05T10:55:55.931Z,3.93
2023-04-05T10:58:22.747Z,4.03
2023-04-05T11:00:50.026Z,3.77
2023-04-05T11:03:35.063Z,4.27
2023-04-05T11:06:23.134Z,3.97
2023-04-05T11:08:50.677Z,4.20
2023-04-05T11:11:18.121Z,4.20
2023-04-05T11:13:57.500Z,4.40
2023-04-05T11:16:37.917Z,3.87
2023-04-05T11:19:04.189Z,4.53
2023-04-05T11:21:31.320Z,3.70
2023-04-05T11:24:01.673Z,4.40
2023-04-05T11:26:31.356Z,4.90
2023-04-05T11:28:58.185Z,4.73
2023-04-05T11:31:26.953Z,3.97
2023-04-05T11:33:56.652Z,4.50
2023-04-05T11:36:32.238Z,3.93
2023-04-05T11:39:21.537Z,4.10
2023-04-05T11:41:47.829Z,4.00
2023-04-05T11:44:14.959Z,3.47
2023-04-05T11:46:41.623Z,3.90
2023-04-05T11:49:08.008Z,4.27
2023-04-05T11:51:34.468Z,4.10
2023-04-05T11:54:00.748Z,4.10
2023-04-05T11:56:27.000Z,3.47
2023-04-05T11:58:57.762Z,4.07
2023-04-05T12:01:24.014Z,4.40
2023-04-05T12:03:54.213Z,3.80
2023-04-05T12:06:22.303Z,3.87
2023-04-05T12:08:51.464Z,3.90
2023-04-05T12:11:23.832Z,3.97
2023-04-05T12:13:53.608Z,3.90
2023-04-05T12:16:19.904Z,3.83
2023-04-05T12:18:52.650Z,3.97
2023-04-05T12:21:18.979Z,4.57
2023-04-05T12:23:45.708Z,4.43
2023-04-05T12:26:12.170Z,3.83
2023-04-05T12:28:51.885Z,4.33
2023-04-05T12:31:18.192Z,3.73
2023-04-05T12:33:44.577Z,4.93
2023-04-05T12:36:11.731Z,4.40
2023-04-05T12:38:38.541Z,3.90
2023-04-05T12:41:07.082Z,3.80
2023-04-05T12:43:40.022Z,3.93
2023-04-05T12:46:09.007Z,3.53
2023-04-05T12:48:36.846Z,3.83
2023-04-05T12:51:05.009Z,3.40
2023-04-05T12:53:31.304Z,3.37
2023-04-05T12:55:58.544Z,3.83
2023-04-05T12:58:35.213Z,4.10
2023-04-05T13:01:01.574Z,3.87
2023-04-05T13:03:28.132Z,3.43
2023-04-05T13:05:54.649Z,3.03
2023-04-05T13:08:21.012Z,3.87
2023-04-05T13:10:47.873Z,3.40
2023-04-05T13:13:14.711Z,3.23
2023-04-05T13:15:41.329Z,3.43
2023-04-05T13:18:08.008Z,3.47
2023-04-05T13:20:34.557Z,3.13
2023-04-05T13:23:00.831Z,3.63
2023-04-05T13:25:27.117Z,3.60
2023-04-05T13:27:53.604Z,3.37
2023-04-05T13:30:20.381Z,2.90
2023-04-05T13:32:46.778Z,3.27
2023-04-05T13:35:13.145Z,3.50
2023-04-05T13:37:39.425Z,3.73
2023-04-05T13:40:06.417Z,3.57
2023-04-05T13:42:32.686Z,3.63
2023-04-05T13:44:58.928Z,3.60
2023-04-05T13:47:25.233Z,3.93
2023-04-05T13:49:51.517Z,3.47
2023-04-05T13:52:18.076Z,3.23
2023-04-05T13:54:44.379Z,3.73
2023-04-05T13:57:11.591Z,3.37
2023-04-05T13:59:38.028Z,3.70
2023-04-05T14:02:04.396Z,3.00
2023-04-05T14:04:30.928Z,3.07
2023-04-05T14:06:57.663Z,3.20
2023-04-05T14:09:23.943Z,3.50
2023-04-05T14:11:50.267Z,3.40
2023-04-05T14:14:16.558Z,3.43
2023-04-05T14:16:42.954Z,3.70
2023-04-05T14:19:09.328Z,2.80
2023-04-05T14:21:37.157Z,3.37
2023-04-05T14:24:03.446Z,3.23
2023-04-05T14:26:29.785Z,3.20
2023-04-05T14:28:56.154Z,3.60
2023-04-05T14:31:22.996Z,3.30
2023-04-05T14:33:49.294Z,3.10
2023-04-05T14:36:15.676Z,2.90
2023-04-05T14:38:41.968Z,3.10
2023-04-05T14:41:08.562Z,3.10
2023-04-05T14:43:34.927Z,3.10
2023-04-05T14:46:01.423Z,2.70
2023-04-05T14:48:30.192Z,3.10
2023-04-05T14:50:56.471Z,3.40
2023-04-05T14:53:22.806Z,3.10
2023-04-05T14:55:49.055Z,2.47
2023-04-05T14:58:15.448Z,2.60
2023-04-05T15:00:41.928Z,2.60
2023-04-05T15:03:08.695Z,2.80
2023-04-05T15:05:35.028Z,3.10
2023-04-05T15:08:01.335Z,2.73
2023-04-05T15:10:27.673Z,2.97
2023-04-05T15:12:53.893Z,3.20
2023-04-05T15:15:20.271Z,2.97
2023-04-05T15:17:46.546Z,3.43
2023-04-05T15:20:12.838Z,3.13
2023-04-05T15:22:40.888Z,3.40
2023-04-05T15:25:08.017Z,3.27
2023-04-05T15:27:34.286Z,2.77
2023-04-05T15:30:00.754Z,3.70
2023-04-05T15:32:27.848Z,3.33
2023-04-05T15:34:54.196Z,3.23
2023-04-05T15:37:20.462Z,3.33
2023-04-05T15:39:46.772Z,3.30
2023-04-05T15:42:13.048Z,3.90
2023-04-05T15:44:39.341Z,3.43
2023-04-05T15:47:05.732Z,3.00
2023-04-05T15:49:32.109Z,3.00
2023-04-05T15:52:00.052Z,2.67
2023-04-05T15:54:26.323Z,2.60
2023-04-05T15:56:52.565Z,2.87
2023-04-05T15:59:18.872Z,2.53
2023-04-05T16:01:45.411Z,2.60
2023-04-05T16:04:11.785Z,2.67
2023-04-05T16:06:38.120Z,2.60
2023-04-05T16:09:04.596Z,3.10
2023-04-05T16:11:30.994Z,2.33
2023-04-05T16:13:57.350Z,2.70
2023-04-05T16:16:35.362Z,2.73
2023-04-05T16:19:10.836Z,2.70
2023-04-05T16:21:37.108Z,2.80
2023-04-05T16:24:04.055Z,2.67
2023-04-05T16:26:30.789Z,2.87
2023-04-05T16:28:57.187Z,2.93
2023-04-05T16:31:23.501Z,2.40
2023-04-05T16:33:49.779Z,2.40
2023-04-05T16:36:16.237Z,2.10
2023-04-05T16:38:43.502Z,2.43
2023-04-05T16:41:10.827Z,2.30
2023-04-05T16:43:37.097Z,2.57
2023-04-05T16:46:03.380Z,2.30
2023-04-05T16:48:30.682Z,2.87
2023-04-05T16:50:57.187Z,2.60
2023-04-05T16:53:23.485Z,2.77
2023-04-05T16:55:49.784Z,2.10
2023-04-05T16:58:16.088Z,2.57
2023-04-05T17:00:42.483Z,2.83
2023-04-05T17:03:08.938Z,3.20
2023-04-05T17:05:35.466Z,2.93
2023-04-05T17:08:01.703Z,3.33
2023-04-05T17:10:28.156Z,3.13
2023-04-05T17:12:54.441Z,3.40
2023-04-05T17:15:21.040Z,3.40
2023-04-05T17:17:47.432Z,3.47
2023-04-05T17:20:13.801Z,3.43
2023-04-05T17:22:41.460Z,3.80
2023-04-05T17:25:08.031Z,3.77
2023-04-05T17:27:34.327Z,3.87
2023-04-05T17:30:01.192Z,3.87
2023-04-05T17:32:28.520Z,4.10
2023-04-05T17:34:54.819Z,3.63
2023-04-05T17:37:21.072Z,3.97
2023-04-05T17:39:47.331Z,3.63
2023-04-05T17:42:13.661Z,4.23
2023-04-05T17:44:39.947Z,3.83
2023-04-05T17:47:09.515Z,4.10
2023-04-05T17:49:37.420Z,3.97
2023-04-05T17:52:04.002Z,4.30
2023-04-05T17:54:31.577Z,4.57
2023-04-05T17:56:58.427Z,3.80
2023-04-05T17:59:24.794Z,4.23
2023-04-05T18:01:53.731Z,4.50
2023-04-05T18:04:21.320Z,3.77
2023-04-05T18:06:47.765Z,4.30
2023-04-05T18:09:14.028Z,4.33
2023-04-05T18:11:40.278Z,3.87
2023-04-05T18:14:06.508Z,3.80
2023-04-05T18:16:32.953Z,3.93
2023-04-05T18:18:59.227Z,4.30
2023-04-05T18:21:25.805Z,4.10
2023-04-05T18:23:52.778Z,4.33
2023-04-05T18:26:19.161Z,3.83
2023-04-05T18:28:45.793Z,4.13
2023-04-05T18:31:12.145Z,4.07
2023-04-05T18:33:40.633Z,4.33
2023-04-05T18:36:07.762Z,3.70
2023-04-05T18:38:34.038Z,4.23
2023-04-05T18:41:01.417Z,3.70
2023-04-05T18:43:27.662Z,4.17
2023-04-05T18:45:54.263Z,3.90
2023-04-05T18:48:20.651Z,4.00
2023-04-05T18:50:47.855Z,4.07
2023-04-05T18:53:14.140Z,3.57
2023-04-05T18:55:40.386Z,3.70
2023-04-05T18:58:06.766Z,3.97
2023-04-05T19:00:33.083Z,3.93
2023-04-05T19:02:59.610Z,4.33
2023-04-05T19:05:26.056Z,4.40
2023-04-05T19:07:52.336Z,4.67
2023-04-05T19:10:18.878Z,4.00
2023-04-05T19:12:45.231Z,4.27
2023-04-05T19:15:11.744Z,4.23
2023-04-05T19:17:38.146Z,4.20
2023-04-05T19:20:04.710Z,3.97
2023-04-05T19:22:31.154Z,4.67
2023-04-05T19:24:57.398Z,4.30
2023-04-05T19:27:23.807Z,3.97
2023-04-05T19:29:50.295Z,4.07
2023-04-05T19:32:16.556Z,4.47
2023-04-05T19:34:43.603Z,4.90
2023-04-05T19:37:09.879Z,4.80
2023-04-05T19:39:36.305Z,4.23
2023-04-05T19:42:02.566Z,4.93
2023-04-05T19:44:50.121Z,5.10
2023-04-05T19:47:17.605Z,4.67
2023-04-05T19:49:43.887Z,5.03
2023-04-05T19:52:12.819Z,4.97
2023-04-05T19:54:39.712Z,5.90
2023-04-05T19:57:06.533Z,4.70
2023-04-05T19:59:34.402Z,5.17
2023-04-05T20:02:01.371Z,4.97
2023-04-05T20:04:28.192Z,5.20
2023-04-05T20:06:55.729Z,5.40
2023-04-05T20:09:22.941Z,5.37
2023-04-05T20:11:53.478Z,5.03
2023-04-05T20:14:22.542Z,5.47
2023-04-05T20:16:49.635Z,5.33
2023-04-05T20:19:16.540Z,5.37
2023-04-05T20:21:42.888Z,5.77
2023-04-05T20:24:09.918Z,5.07
2023-04-05T20:26:36.245Z,4.87
2023-04-05T20:29:04.114Z,4.90
2023-04-05T20:31:32.201Z,4.97
2023-04-05T20:34:06.335Z,5.37
2023-04-05T20:36:33.989Z,4.90
2023-04-05T20:39:01.312Z,5.30
2023-04-05T20:41:27.629Z,5.17
2023-04-05T20:43:55.138Z,5.00
2023-04-05T20:46:22.094Z,4.97
2023-04-05T20:48:48.509Z,4.90
2023-04-05T20:51:15.562Z,5.50
2023-04-05T20:53:42.413Z,5.30
2023-04-05T20:56:09.554Z,5.20
2023-04-05T20:58:36.529Z,5.10
2023-04-05T21:01:03.626Z,5.03
2023-04-05T21:03:31.711Z,5.17
2023-04-05T21:05:58.796Z,5.30
2023-04-05T21:08:25.636Z,5.07
2023-04-05T21:10:52.197Z,5.00
2023-04-05T21:13:18.484Z,5.13
2023-04-05T21:15:44.778Z,5.03
2023-04-05T21:18:11.278Z,5.23
2023-04-05T21:20:37.671Z,5.67
2023-04-05T21:23:04.437Z,5.43
2023-04-05T21:25:31.445Z,5.70
2023-04-05T21:27:58.855Z,5.43
2023-04-05T21:30:25.154Z,5.20
2023-04-05T21:32:51.549Z,5.83
2023-04-05T21:35:17.864Z,6.03
2023-04-05T21:37:44.179Z,6.27
2023-04-05T21:40:10.776Z,5.43
2023-04-05T21:42:37.039Z,5.47
2023-04-05T21:45:03.536Z,5.90
2023-04-05T21:47:29.858Z,5.63
2023-04-05T21:49:57.340Z,5.83
2023-04-05T21:52:23.616Z,6.00
2023-04-05T21:54:49.869Z,5.60
2023-04-05T21:57:16.112Z,6.10
2023-04-05T21:59:42.450Z,5.67
2023-04-05T22:02:08.780Z,5.63
2023-04-05T22:04:35.362Z,5.50
2023-04-05T22:07:01.634Z,5.50
2023-04-05T22:09:31.752Z,5.50
2023-04-05T22:11:58.714Z,5.10
2023-04-05T22:14:25.398Z,5.10
2023-04-05T22:16:51.743Z,5.60
2023-04-05T22:19:18.107Z,5.20
2023-04-05T22:21:44.368Z,5.53
2023-04-05T22:24:11.260Z,5.47
2023-04-05T22:26:41.003Z,5.57
2023-04-05T22:29:07.474Z,5.53
2023-04-05T22:31:33.962Z,5.13
2023-04-05T22:34:00.592Z,5.60
2023-04-05T22:36:27.346Z,5.93
2023-04-05T22:38:54.531Z,5.00
2023-04-05T22:41:21.255Z,5.57
2023-04-05T22:43:47.515Z,5.13
2023-04-05T22:46:13.831Z,5.53
2023-04-05T22:48:40.112Z,5.13
2023-04-05T22:51:08.550Z,5.60
2023-04-05T22:53:34.895Z,5.63
2023-04-05T22:56:01.167Z,6.17
2023-04-05T22:58:29.684Z,5.70
2023-04-05T23:00:56.400Z,5.23
2023-04-05T23:03:22.629Z,5.40
2023-04-05T23:05:52.032Z,5.60
2023-04-05T23:08:18.431Z,6.03
2023-04-05T23:10:44.760Z,5.23
2023-04-05T23:13:11.639Z,5.40
2023-04-05T23:15:37.929Z,5.03
2023-04-05T23:18:04.254Z,5.17
2023-04-05T23:20:30.575Z,5.40
2023-04-05T23:22:56.876Z,5.03
2023-04-05T23:25:23.402Z,5.20
2023-04-05T23:27:49.714Z,5.30
2023-04-05T23:30:16.243Z,5.57
2023-04-05T23:32:42.564Z,5.50
2023-04-05T23:35:09.060Z,5.40
2023-04-05T23:37:35.462Z,5.33
2023-04-05T23:40:01.777Z,5.07
2023-04-05T23:42:28.020Z,5.07
2023-04-05T23:44:54.299Z,5.67
2023-04-05T23:47:20.740Z,5.20
2023-04-05T23:49:47.015Z,5.53
2023-04-05T23:52:13.439Z,5.40
2023-04-05T23:54:39.772Z,5.80
2023-04-05T23:57:06.356Z,5.30
2023-04-05T23:59:32.772Z,6.20
